Time;durP1;ratioP1;P1;durP2;ratioP2;P2;SDS_P1;SDS_P2;PMS_P1;PMS_P2;Temp;Humidity;BMP_temperature;BMP_pressure;BME280_temperature;BME280_humidity;BME280_pressure;Samples;Min_cycle;Max_cycle;Signal;HPM_P1;HPM_P2
2023/07/01 00:01:03;;;;;;;14.68;12.65;;;;;;;18.89;82.11;99462.61;1792820;80;25361;-57
2023/07/01 00:03:31;;;;;;;16.67;13.25;;;;;;;18.90;82.92;99462.82;1792899;80;25605;-55
2023/07/01 00:05:58;;;;;;;13.68;12.23;;;;;;;18.88;83.30;99457.52;1792877;80;27554;-55
2023/07/01 00:08:25;;;;;;;14.35;12.85;;;;;;;18.84;82.86;99455.53;1792967;80;25400;-57
2023/07/01 00:10:53;;;;;;;17.10;13.00;;;;;;;18.84;83.16;99461.02;1792899;80;27368;-57
2023/07/01 00:13:19;;;;;;;16.27;14.28;;;;;;;18.82;83.33;99453.77;1761994;80;26055;-57
2023/07/01 00:15:46;;;;;;;16.75;14.00;;;;;;;18.81;83.47;99454.94;1792940;79;25553;-57
2023/07/01 00:18:12;;;;;;;15.03;13.15;;;;;;;18.79;83.45;99455.88;1792864;80;25435;-56
2023/07/01 00:20:38;;;;;;;15.10;13.50;;;;;;;18.79;83.76;99454.51;1792977;80;25388;-54
2023/07/01 00:23:04;;;;;;;17.77;13.75;;;;;;;18.78;83.85;99459.00;1793021;80;29643;-54
2023/07/01 00:25:30;;;;;;;17.23;13.68;;;;;;;18.77;84.37;99456.08;1792807;80;25361;-53
2023/07/01 00:27:57;;;;;;;19.00;13.85;;;;;;;18.76;84.09;99454.50;1792830;80;25446;-54
2023/07/01 00:30:23;;;;;;;16.35;12.95;;;;;;;18.76;84.23;99457.23;1792861;80;25457;-57
2023/07/01 00:32:49;;;;;;;16.40;14.03;;;;;;;18.74;84.29;99458.21;1792986;80;25428;-54
2023/07/01 00:35:15;;;;;;;41.18;38.33;;;;;;;18.73;84.58;99459.37;1792942;79;27292;-56
2023/07/01 00:37:41;;;;;;;85.07;79.55;;;;;;;18.71;84.83;99459.78;1792836;80;27305;-55
2023/07/01 00:40:09;;;;;;;84.95;79.47;;;;;;;18.71;85.19;99457.61;1792958;79;25447;-53
2023/07/01 00:42:36;;;;;;;84.47;78.90;;;;;;;18.68;84.78;99452.33;1793074;80;25617;-56
2023/07/01 00:45:04;;;;;;;86.42;80.72;;;;;;;18.66;85.36;99451.34;1793152;80;25430;-56
2023/07/01 00:47:31;;;;;;;86.00;80.35;;;;;;;18.64;85.71;99453.68;1793238;80;27364;-55
2023/07/01 00:49:58;;;;;;;60.20;55.90;;;;;;;18.62;85.92;99457.36;1792985;80;25611;-53
2023/07/01 00:52:24;;;;;;;18.77;15.98;;;;;;;18.61;86.51;99456.38;1793090;80;25642;-54
2023/07/01 00:54:50;;;;;;;18.32;15.35;;;;;;;18.56;86.47;99453.44;1793008;80;25602;-57
2023/07/01 00:57:17;;;;;;;18.35;15.58;;;;;;;18.54;86.54;99455.78;1793088;80;25392;-56
2023/07/01 00:59:43;;;;;;;17.37;15.00;;;;;;;18.51;86.88;99449.70;1793063;80;27370;-54
2023/07/01 01:02:19;;;;;;;53.15;49.18;;;;;;;18.48;86.81;99449.09;1792969;80;27186;-55
2023/07/01 01:05:01;;;;;;;18.50;16.12;;;;;;;18.44;87.14;99448.30;1793120;80;25671;-56
2023/07/01 01:07:28;;;;;;;21.35;15.70;;;;;;;18.40;87.43;99445.52;1791374;80;25719;-53
2023/07/01 01:10:08;;;;;;;25.25;22.90;;;;;;;18.38;87.98;99447.08;1791409;79;25566;-57
2023/07/01 01:12:37;;;;;;;18.55;16.37;;;;;;;18.34;88.06;99448.98;1762242;80;27361;-55
2023/07/01 01:15:08;;;;;;;74.70;69.65;;;;;;;18.28;88.32;99439.77;1762145;80;25700;-57
2023/07/01 01:17:39;;;;;;;92.00;85.32;;;;;;;18.26;88.55;99439.38;1788627;80;25377;-56
2023/07/01 01:20:13;;;;;;;22.35;17.52;;;;;;;18.23;88.72;99438.76;1793111;80;25438;-57
2023/07/01 01:23:06;;;;;;;20.08;17.98;;;;;;;18.23;88.83;99443.45;1792979;80;25554;-55
2023/07/01 01:25:38;;;;;;;20.17;17.73;;;;;;;18.23;89.48;99440.72;1792408;80;27255;-55
2023/07/01 01:28:06;;;;;;;18.98;17.00;;;;;;;18.20;89.52;99438.73;1772315;79;25611;-54
2023/07/01 01:30:34;;;;;;;19.95;17.48;;;;;;;18.18;89.73;99434.23;1761143;81;25599;-55
2023/07/01 01:33:01;;;;;;;40.65;36.95;;;;;;;18.17;89.94;99435.42;1761172;81;25941;-57
2023/07/01 01:35:29;;;;;;;26.23;22.95;;;;;;;18.16;90.05;99433.25;1761213;81;25667;-56
2023/07/01 01:38:10;;;;;;;21.52;19.32;;;;;;;18.16;90.37;99427.77;1761168;81;27366;-56
2023/07/01 01:40:47;;;;;;;56.60;52.25;;;;;;;18.15;90.57;99430.33;1761065;81;25390;-57
2023/07/01 01:43:48;;;;;;;27.65;24.90;;;;;;;18.13;90.41;99432.63;1755078;81;25505;-56
2023/07/01 01:46:18;;;;;;;92.02;85.50;;;;;;;18.13;90.69;99438.11;1761184;81;26345;-55
2023/07/01 01:48:44;;;;;;;89.90;83.90;;;;;;;18.11;91.00;99433.60;1761209;81;25540;-56
2023/07/01 01:51:13;;;;;;;91.55;85.15;;;;;;;18.09;91.17;99433.98;1733243;81;28197;-57
2023/07/01 01:53:41;;;;;;;91.97;85.38;;;;;;;18.08;91.14;99436.53;1761265;81;25457;-58
2023/07/01 01:56:09;;;;;;;90.40;83.92;;;;;;;18.07;91.48;99432.22;1761129;81;25370;-56
2023/07/01 01:58:37;;;;;;;92.42;86.22;;;;;;;18.06;91.55;99432.00;1761956;81;25411;-55
2023/07/01 02:01:03;;;;;;;22.32;19.90;;;;;;;18.05;91.32;99439.25;1762239;81;25206;-57
2023/07/01 02:03:29;;;;;;;22.07;19.00;;;;;;;18.05;91.81;99435.92;1762306;81;27456;-56
2023/07/01 02:05:55;;;;;;;21.65;18.67;;;;;;;18.03;91.97;99438.26;1761146;81;25398;-58
2023/07/01 02:08:22;;;;;;;24.85;18.67;;;;;;;18.00;92.11;99436.27;1761132;81;25618;-57
2023/07/01 02:10:48;;;;;;;20.65;18.07;;;;;;;18.00;92.22;99435.50;1761180;81;25668;-58
2023/07/01 02:13:14;;;;;;;21.70;18.27;;;;;;;17.99;92.24;99440.16;1761147;81;25548;-54
2023/07/01 02:15:40;;;;;;;24.67;18.85;;;;;;;17.99;92.50;99432.55;1761113;81;27367;-58
2023/07/01 02:18:06;;;;;;;24.43;17.62;;;;;;;17.99;92.54;99438.02;1733093;81;25662;-55
2023/07/01 02:20:33;;;;;;;20.45;18.23;;;;;;;17.99;92.85;99438.80;1761190;81;25567;-54
2023/07/01 02:22:59;;;;;;;20.43;18.12;;;;;;;17.99;92.95;99437.42;1761115;81;25393;-58
2023/07/01 02:25:26;;;;;;;25.35;20.40;;;;;;;17.99;92.79;99438.80;1761168;81;25543;-57
2023/07/01 02:27:52;;;;;;;23.10;19.02;;;;;;;18.00;92.81;99440.38;1761066;79;27397;-56
2023/07/01 02:30:18;;;;;;;22.15;18.65;;;;;;;18.02;93.42;99440.00;1761033;81;25433;-56
2023/07/01 02:32:44;;;;;;;22.48;20.17;;;;;;;18.04;93.59;99436.30;1761152;81;25469;-55
2023/07/01 02:35:11;;;;;;;23.15;18.87;;;;;;;18.04;93.60;99433.56;1761079;81;25568;-55
2023/07/01 02:37:37;;;;;;;25.57;20.40;;;;;;;18.07;93.77;99435.54;1761153;81;25435;-57
2023/07/01 02:40:05;;;;;;;24.43;19.23;;;;;;;18.06;93.70;99429.27;1761152;81;27443;-57
2023/07/01 02:42:31;;;;;;;25.30;22.60;;;;;;;18.08;93.68;99435.73;1733384;81;25626;-55
2023/07/01 02:44:58;;;;;;;34.45;31.33;;;;;;;18.10;94.07;99423.84;1761096;81;25387;-54
2023/07/01 02:47:24;;;;;;;45.38;41.40;;;;;;;18.14;94.41;99427.97;1761052;81;25413;-59
2023/07/01 02:49:51;;;;;;;49.30;45.43;;;;;;;18.16;93.93;99427.00;1761135;81;25545;-59
2023/07/01 02:52:17;;;;;;;85.15;79.27;;;;;;;18.18;94.20;99430.91;1761099;81;27323;-58
2023/07/01 02:54:44;;;;;;;89.87;83.72;;;;;;;18.19;94.22;99427.02;1760989;81;25768;-59
2023/07/01 02:57:11;;;;;;;93.78;87.08;;;;;;;18.20;94.58;99416.84;1761138;81;25397;-58
2023/07/01 02:59:38;;;;;;;92.78;86.37;;;;;;;18.20;93.88;99419.58;1761048;81;25414;-59
2023/07/01 03:02:06;;;;;;;92.15;85.75;;;;;;;18.23;94.21;99417.45;1761125;81;25628;-55
2023/07/01 03:04:34;;;;;;;93.20;86.85;;;;;;;18.23;94.16;99417.45;1733071;81;27839;-57
2023/07/01 03:07:01;;;;;;;92.92;86.22;;;;;;;18.23;94.01;99410.02;1760982;81;25447;-56
2023/07/01 03:09:28;;;;;;;94.60;87.75;;;;;;;18.25;94.00;99415.12;1761117;81;25196;-56
2023/07/01 03:11:54;;;;;;;93.33;86.82;;;;;;;18.26;94.37;99417.47;1761030;81;27567;-55
2023/07/01 03:14:20;;;;;;;95.10;88.52;;;;;;;18.27;94.16;99417.69;1761123;81;25399;-52
2023/07/01 03:16:49;;;;;;;93.65;87.02;;;;;;;18.26;94.12;99418.84;1761098;81;27353;-55
2023/07/01 03:19:16;;;;;;;93.03;86.45;;;;;;;18.27;94.54;99415.55;1761139;81;25592;-54
2023/07/01 03:21:42;;;;;;;94.40;87.55;;;;;;;18.27;94.72;99414.95;1761098;81;25573;-56
2023/07/01 03:24:08;;;;;;;88.62;82.25;;;;;;;18.29;94.73;99414.57;1761035;81;25479;-59
2023/07/01 03:26:35;;;;;;;86.30;79.92;;;;;;;18.31;94.78;99416.33;1761113;81;25376;-55
2023/07/01 03:29:02;;;;;;;94.00;87.22;;;;;;;18.34;95.04;99412.84;1761036;79;27954;-56
2023/07/01 03:31:28;;;;;;;96.28;89.32;;;;;;;18.37;95.54;99413.45;1760968;81;25540;-57
2023/07/01 03:33:55;;;;;;;91.97;85.38;;;;;;;18.39;95.10;99404.27;1733128;81;25479;-56
2023/07/01 03:36:21;;;;;;;96.45;89.28;;;;;;;18.41;95.44;99404.66;1761070;81;25646;-55
2023/07/01 03:38:48;;;;;;;92.90;86.20;;;;;;;18.44;95.39;99405.27;1761092;81;25453;-55
2023/07/01 03:41:14;;;;;;;93.75;87.02;;;;;;;18.47;95.46;99403.70;1761069;81;27361;-54
2023/07/01 03:43:40;;;;;;;93.97;87.40;;;;;;;18.50;95.54;99404.89;1761069;81;25616;-57
2023/07/01 03:46:06;;;;;;;91.08;84.72;;;;;;;18.54;95.65;99407.05;1761176;81;25615;-57
2023/07/01 03:48:34;;;;;;;94.72;87.72;;;;;;;18.56;95.79;99404.71;1761002;81;25549;-57
2023/07/01 03:51:00;;;;;;;35.90;32.20;;;;;;;18.61;96.06;99407.08;1733128;81;25629;-56
2023/07/01 03:53:26;;;;;;;62.40;57.08;;;;;;;18.66;96.08;99404.77;1761077;81;27215;-57
2023/07/01 03:55:53;;;;;;;93.27;86.30;;;;;;;18.71;95.99;99406.94;1733226;81;25886;-54
2023/07/01 03:58:24;;;;;;;96.60;89.30;;;;;;;18.75;95.97;99399.53;1761091;81;25594;-54
2023/07/01 04:00:53;;;;;;;93.92;87.10;;;;;;;18.79;96.12;99405.80;1733117;81;26074;-57
2023/07/01 04:03:23;;;;;;;96.05;88.75;;;;;;;18.83;96.12;99410.16;1760679;81;25597;-57
2023/07/01 04:05:49;;;;;;;95.55;88.27;;;;;;;18.88;96.03;99403.49;1761116;81;27498;-56
2023/07/01 04:08:16;;;;;;;93.00;86.12;;;;;;;18.91;95.77;99405.47;1760998;81;25660;-57
2023/07/01 04:10:42;;;;;;;95.17;88.07;;;;;;;18.93;95.42;99412.70;1761026;81;25589;-58
2023/07/01 04:13:08;;;;;;;94.67;87.53;;;;;;;18.94;95.04;99412.92;1761028;81;25391;-54
2023/07/01 04:15:34;;;;;;;96.50;89.50;;;;;;;18.95;95.19;99406.84;1733091;81;25557;-57
2023/07/01 04:18:00;;;;;;;95.28;88.42;;;;;;;18.98;95.52;99410.96;1761060;81;27218;-55
2023/07/01 04:20:27;;;;;;;95.30;88.35;;;;;;;19.01;95.54;99408.83;1760963;81;25806;-54
2023/07/01 04:22:53;;;;;;;95.87;88.78;;;;;;;19.04;95.53;99401.80;1761099;81;25431;-56
2023/07/01 04:25:19;;;;;;;94.70;87.67;;;;;;;19.06;95.23;99404.15;1733036;81;25642;-56
2023/07/01 04:27:46;;;;;;;95.12;88.15;;;;;;;19.09;95.06;99408.86;1760986;79;25428;-57
2023/07/01 04:30:14;;;;;;;96.25;88.85;;;;;;;19.10;94.95;99407.08;1761032;81;29509;-56
2023/07/01 04:32:41;;;;;;;91.92;85.45;;;;;;;19.13;95.05;99409.05;1761034;81;25603;-57
2023/07/01 04:35:07;;;;;;;92.78;86.22;;;;;;;19.18;94.92;99410.63;1761057;81;25527;-57
2023/07/01 04:37:34;;;;;;;96.42;89.52;;;;;;;19.22;94.98;99407.30;1761029;81;25601;-54
2023/07/01 04:40:02;;;;;;;93.10;86.25;;;;;;;19.23;94.67;99412.39;1761056;81;25485;-57
2023/07/01 04:42:28;;;;;;;94.87;88.07;;;;;;;19.27;95.29;99413.00;1761024;81;27324;-57
2023/07/01 04:44:54;;;;;;;92.10;85.45;;;;;;;19.33;95.33;99418.30;1760948;81;25533;-55
2023/07/01 04:47:23;;;;;;;92.80;85.97;;;;;;;19.38;95.54;99415.17;1761045;81;25600;-56
2023/07/01 04:49:52;;;;;;;92.25;85.57;;;;;;;19.43;95.28;99415.36;1761030;81;25631;-57
2023/07/01 04:52:25;;;;;;;;;;;;;;;19.46;94.43;99414.58;1763717;81;25421;-56
2023/07/01 04:54:53;;;;;;;92.35;85.90;;;;;;;19.49;94.38;99415.95;1733149;81;27334;-57
2023/07/01 04:57:19;;;;;;;92.60;85.72;;;;;;;19.48;93.55;99417.14;1760973;81;25624;-55
2023/07/01 04:59:45;;;;;;;92.20;85.90;;;;;;;19.45;93.23;99415.17;1761027;81;25626;-55
2023/07/01 05:02:12;;;;;;;89.55;83.07;;;;;;;19.43;92.50;99416.16;1761018;81;25607;-57
2023/07/01 05:04:38;;;;;;;93.37;86.70;;;;;;;19.41;92.57;99409.70;1733341;81;25450;-57
2023/07/01 05:07:05;;;;;;;89.95;83.35;;;;;;;19.43;92.98;99417.53;1733172;81;27627;-56
2023/07/01 05:09:31;;;;;;;92.80;86.20;;;;;;;19.43;93.27;99401.08;1760958;81;25699;-53
2023/07/01 05:11:58;;;;;;;90.28;83.82;;;;;;;19.46;93.21;99412.64;1761067;81;25619;-54
2023/07/01 05:14:24;;;;;;;90.77;84.07;;;;;;;19.48;93.29;99410.29;1760990;81;25548;-55
2023/07/01 05:16:50;;;;;;;90.90;84.13;;;;;;;19.52;93.30;99413.80;1761062;81;25444;-57
2023/07/01 05:19:16;;;;;;;90.92;83.78;;;;;;;19.55;93.15;99408.91;1733062;81;27381;-56
2023/07/01 05:21:53;;;;;;;90.80;84.60;;;;;;;19.57;92.67;99416.16;1760971;81;25600;-55
2023/07/01 05:24:20;;;;;;;91.95;85.47;;;;;;;19.59;92.73;99415.77;1761053;81;25593;-55
2023/07/01 05:26:51;;;;;;;90.97;84.58;;;;;;;19.65;92.78;99426.56;1760985;81;25442;-55
2023/07/01 05:29:25;;;;;;;87.37;81.22;;;;;;;19.69;92.37;99422.44;1761119;79;25466;-53
2023/07/01 05:31:52;;;;;;;86.55;80.65;;;;;;;19.75;93.06;99423.63;1761232;81;27322;-57
2023/07/01 05:34:18;;;;;;;88.67;82.27;;;;;;;19.84;92.99;99421.89;1761099;81;25539;-54
2023/07/01 05:36:44;;;;;;;89.60;83.07;;;;;;;19.91;93.10;99416.39;1761183;81;25565;-53
2023/07/01 05:39:12;;;;;;;87.10;81.00;;;;;;;20.04;94.02;99409.33;1761175;81;25579;-55
2023/07/01 05:41:40;;;;;;;88.52;82.15;;;;;;;20.18;93.54;99410.48;1761210;81;25549;-54
2023/07/01 05:44:08;;;;;;;20.45;15.55;;;;;;;20.30;92.32;99417.69;1761296;81;27390;-53
2023/07/01 05:46:34;;;;;;;88.37;82.47;;;;;;;20.39;91.87;99413.75;1761042;81;27160;-52
2023/07/01 05:49:00;;;;;;;22.75;20.27;;;;;;;20.46;91.49;99413.72;1761191;81;25507;-52
2023/07/01 05:51:27;;;;;;;87.02;81.12;;;;;;;20.50;90.44;99425.50;1733128;81;25678;-53
2023/07/01 05:53:53;;;;;;;85.83;80.25;;;;;;;20.55;89.93;99424.28;1761169;81;25426;-54
2023/07/01 05:56:19;;;;;;;85.30;79.42;;;;;;;20.58;89.28;99419.38;1761193;81;27327;-55
2023/07/01 05:58:46;;;;;;;87.82;82.05;;;;;;;20.62;89.08;99425.09;1761076;81;25394;-56
2023/07/01 06:01:12;;;;;;;85.22;79.58;;;;;;;20.67;89.07;99423.87;1761157;81;25587;-53
2023/07/01 06:03:38;;;;;;;87.15;81.40;;;;;;;20.69;88.64;99429.17;1761078;81;25642;-56
2023/07/01 06:06:05;;;;;;;86.28;80.55;;;;;;;20.73;88.56;99429.75;1761261;81;25511;-57
2023/07/01 06:08:31;;;;;;;86.63;80.67;;;;;;;20.76;88.13;99439.36;1733543;81;27902;-56
2023/07/01 06:10:57;;;;;;;83.72;78.22;;;;;;;20.76;87.93;99433.86;1761029;81;25864;-53
2023/07/01 06:13:23;;;;;;;83.33;77.97;;;;;;;20.79;87.57;99433.07;1761144;81;25405;-50
2023/07/01 06:15:50;;;;;;;84.62;79.07;;;;;;;20.80;87.10;99432.47;1761272;81;25443;-52
2023/07/01 06:18:16;;;;;;;84.77;78.78;;;;;;;20.86;87.42;99431.66;1761275;81;25571;-50
2023/07/01 06:20:43;;;;;;;85.12;79.70;;;;;;;20.97;87.77;99433.57;1733620;81;27416;-50
2023/07/01 06:23:09;;;;;;;81.90;76.57;;;;;;;21.05;87.36;99430.98;1761621;81;25390;-50
2023/07/01 06:25:35;;;;;;;84.90;79.12;;;;;;;21.12;86.48;99433.69;1761638;81;25560;-50
2023/07/01 06:28:02;;;;;;;82.25;76.80;;;;;;;21.18;86.38;99434.84;1761162;79;25373;-51
2023/07/01 06:30:28;;;;;;;84.20;78.75;;;;;;;;;;1761171;81;25408;-55
2023/07/01 06:32:55;;;;;;;83.03;77.47;;;;;;;21.33;86.21;99442.39;1761139;81;28194;-52
2023/07/01 06:35:21;;;;;;;82.27;76.77;;;;;;;21.40;85.79;99440.19;1761060;81;25538;-51
2023/07/01 06:37:48;;;;;;;84.72;79.22;;;;;;;21.48;85.18;99438.98;1761168;81;25608;-53
2023/07/01 06:40:14;;;;;;;84.40;78.80;;;;;;;21.56;84.70;99441.88;1761068;81;25515;-50
2023/07/01 06:42:40;;;;;;;85.17;79.53;;;;;;;21.63;84.40;99443.20;1761142;81;25454;-50
2023/07/01 06:45:09;;;;;;;82.17;76.47;;;;;;;21.69;83.92;99449.07;1761195;81;28454;-54
2023/07/01 06:47:36;;;;;;;83.12;77.65;;;;;;;21.71;83.12;99449.44;1733207;81;25582;-52
2023/07/01 06:50:02;;;;;;;80.77;75.28;;;;;;;21.70;82.30;99451.99;1761156;81;25441;-54
2023/07/01 06:52:29;;;;;;;82.75;77.53;;;;;;;21.69;82.06;99447.70;1733318;81;25510;-52
2023/07/01 06:54:55;;;;;;;86.15;80.42;;;;;;;21.73;82.54;99447.66;1761118;81;25387;-54
2023/07/01 06:57:22;;;;;;;80.57;75.15;;;;;;;21.79;82.72;99450.95;1761072;81;27384;-53
2023/07/01 06:59:48;;;;;;;80.38;75.37;;;;;;;21.88;82.21;99451.86;1761052;81;25374;-52
2023/07/01 07:02:16;;;;;;;25.65;23.18;;;;;;;21.96;81.86;99449.81;1761094;81;25414;-51
2023/07/01 07:04:43;;;;;;;83.17;77.53;;;;;;;22.04;81.66;99443.66;1733403;81;25696;-56
2023/07/01 07:07:10;;;;;;;81.67;76.17;;;;;;;22.07;81.22;99444.23;1761173;81;25531;-53
2023/07/01 07:09:36;;;;;;;82.57;77.22;;;;;;;22.13;80.51;99443.35;1761053;81;29604;-51
2023/07/01 07:12:03;;;;;;;19.02;17.17;;;;;;;22.18;80.11;99439.38;1760984;81;25883;-52
2023/07/01 07:14:30;;;;;;;50.38;46.60;;;;;;;22.21;79.49;99446.83;1756501;81;25450;-53
2023/07/01 07:16:56;;;;;;;80.32;74.92;;;;;;;22.19;78.82;99449.99;1761084;81;25623;-51
2023/07/01 07:19:22;;;;;;;81.72;76.12;;;;;;;22.18;78.35;99452.55;1761147;81;25382;-52
2023/07/01 07:21:48;;;;;;;79.90;74.67;;;;;;;22.16;78.05;99452.19;1761065;81;27400;-53
2023/07/01 07:24:14;;;;;;;82.37;76.65;;;;;;;22.11;77.65;99448.49;1761035;81;25580;-53
2023/07/01 07:26:42;;;;;;;80.85;75.40;;;;;;;22.07;77.33;99453.87;1761049;81;25530;-52
2023/07/01 07:29:09;;;;;;;80.85;75.70;;;;;;;21.98;76.86;99455.69;1760980;79;25863;-51
2023/07/01 07:31:36;;;;;;;83.07;77.40;;;;;;;21.91;77.01;99448.88;1761116;81;25580;-51
2023/07/01 07:34:02;;;;;;;80.22;74.70;;;;;;;21.92;78.20;99453.98;1761037;81;27316;-50
2023/07/01 07:36:28;;;;;;;80.32;74.97;;;;;;;21.98;78.25;99453.73;1761013;81;25519;-50
2023/07/01 07:38:54;;;;;;;80.70;75.40;;;;;;;22.01;78.08;99452.13;1761041;81;25438;-50
2023/07/01 07:41:20;;;;;;;80.07;74.82;;;;;;;21.98;77.60;99455.12;1761011;81;25371;-52
2023/07/01 07:43:47;;;;;;;80.12;74.75;;;;;;;22.00;77.51;99452.73;1761135;81;25372;-52
2023/07/01 07:46:13;;;;;;;80.20;74.90;;;;;;;22.04;78.06;99448.56;1761034;81;27311;-54
2023/07/01 07:48:39;;;;;;;82.53;77.05;;;;;;;22.09;77.59;99452.86;1760988;81;27267;-52
2023/07/01 07:51:06;;;;;;;81.08;75.62;;;;;;;22.09;76.83;99451.48;1760475;81;25685;-51
2023/07/01 07:53:32;;;;;;;81.57;75.97;;;;;;;22.01;76.56;99449.38;1759581;81;26009;-51
2023/07/01 07:55:58;;;;;;;66.12;61.77;;;;;;;22.00;76.53;99449.20;1760178;81;25968;-52
2023/07/01 07:58:24;;;;;;;19.23;10.58;;;;;;;22.03;76.85;99449.74;1760178;81;27338;-51
2023/07/01 08:00:52;;;;;;;13.90;10.58;;;;;;;22.08;76.74;99451.28;1760107;81;25623;-50
2023/07/01 08:03:18;;;;;;;15.40;10.32;;;;;;;22.11;76.16;99452.63;1760228;81;25635;-54
2023/07/01 08:05:44;;;;;;;19.20;10.98;;;;;;;22.09;75.51;99448.73;1760336;81;25597;-53
2023/07/01 08:08:11;;;;;;;16.62;10.58;;;;;;;22.13;75.59;99446.71;1761085;81;25616;-51
2023/07/01 08:10:43;;;;;;;14.45;11.63;;;;;;;22.14;75.27;99444.93;1761114;81;27184;-57
2023/07/01 08:13:08;;;;;;;17.87;16.07;;;;;;;22.16;74.81;99443.92;1760039;81;25532;-54
2023/07/01 08:15:34;;;;;;;33.85;30.90;;;;;;;22.12;74.42;99446.55;1761012;81;25442;-53
2023/07/01 08:18:00;;;;;;;18.37;11.00;;;;;;;22.10;75.04;99448.90;1760954;81;25436;-51
2023/07/01 08:20:26;;;;;;;17.75;10.68;;;;;;;22.16;75.05;99450.03;1761040;81;25547;-51
2023/07/01 08:22:52;;;;;;;47.25;43.70;;;;;;;22.20;75.03;99449.39;1760990;81;27250;-51
2023/07/01 08:25:19;;;;;;;14.35;9.75;;;;;;;22.26;74.62;99449.14;1760940;81;25834;-49
2023/07/01 08:27:45;;;;;;;14.55;9.78;;;;;;;22.42;75.10;99443.70;1733529;81;25584;-49
2023/07/01 08:30:12;;;;;;;14.83;9.65;;;;;;;22.71;75.02;99442.77;1760919;79;25558;-51
2023/07/01 08:32:40;;;;;;;14.05;9.75;;;;;;;22.96;75.47;99441.09;1733254;81;25456;-52
2023/07/01 08:35:08;;;;;;;14.20;9.23;;;;;;;23.23;74.00;99444.52;1733201;81;27224;-58
2023/07/01 08:37:35;;;;;;;13.45;9.48;;;;;;;23.28;72.93;99439.91;1761015;81;25455;-55
2023/07/01 08:40:01;;;;;;;13.95;9.40;;;;;;;23.40;72.72;99448.98;1733317;81;25572;-57
2023/07/01 08:42:35;;;;;;;15.80;9.53;;;;;;;23.49;71.52;99445.09;1761136;81;25384;-61
2023/07/01 08:45:04;;;;;;;16.90;10.20;;;;;;;23.55;70.33;99447.38;1759980;81;25391;-58
2023/07/01 08:47:32;;;;;;;16.65;9.90;;;;;;;23.39;69.43;99447.41;1761208;81;27340;-61
2023/07/01 08:50:06;;;;;;;12.23;9.30;;;;;;;23.29;69.12;99441.45;1760064;81;25774;-55
2023/07/01 08:52:37;;;;;;;17.00;9.93;;;;;;;23.25;69.66;99442.11;1761080;81;25517;-53
2023/07/01 08:55:12;;;;;;;17.75;9.78;;;;;;;23.26;70.20;99436.78;1760126;81;25376;-51
2023/07/01 08:57:40;;;;;;;16.40;11.73;;;;;;;23.31;70.19;99437.09;1761104;81;25656;-49
2023/07/01 09:00:10;;;;;;;16.12;11.53;;;;;;;23.38;70.27;99434.02;1761223;81;27392;-52
2023/07/01 09:02:37;;;;;;;13.75;10.25;;;;;;;23.46;70.36;99429.39;1761024;81;25570;-51
2023/07/01 09:05:05;;;;;;;16.80;10.43;;;;;;;23.62;69.89;99437.02;1761245;81;25555;-52
2023/07/01 09:07:32;;;;;;;14.63;11.80;;;;;;;23.66;68.70;99432.20;1761214;81;25462;-52
2023/07/01 09:10:01;;;;;;;45.17;41.83;;;;;;;23.67;68.62;99431.63;1761310;81;25610;-53
2023/07/01 09:12:32;;;;;;;54.18;50.25;;;;;;;23.71;68.62;99423.28;1761315;81;27905;-52
2023/07/01 09:15:02;;;;;;;15.85;10.32;;;;;;;23.76;68.45;99420.05;1761154;81;25450;-52
2023/07/01 09:17:33;;;;;;;61.35;56.83;;;;;;;23.79;68.37;99421.97;1733246;81;25434;-51
2023/07/01 09:20:08;;;;;;;78.62;73.35;;;;;;;23.82;68.56;99421.14;1760789;81;27515;-54
2023/07/01 09:22:38;;;;;;;80.22;74.92;;;;;;;23.89;68.06;99425.76;1760977;81;25433;-50
2023/07/01 09:25:07;;;;;;;80.40;74.80;;;;;;;24.05;68.70;99427.26;1733253;81;28400;-51
2023/07/01 09:27:49;;;;;;;81.35;75.62;;;;;;;24.13;67.58;99432.07;1761255;81;25362;-60
2023/07/01 09:30:25;;;;;;;80.57;74.95;;;;;;;24.18;67.31;99430.20;1761156;79;25923;-60
2023/07/01 09:33:10;;;;;;;84.10;77.90;;;;;;;24.13;66.49;99424.55;1761137;81;25968;-52
2023/07/01 09:35:44;;;;;;;81.92;76.07;;;;;;;24.05;66.51;99423.11;1790627;77;25723;-53
2023/07/01 09:38:11;;;;;;;46.20;41.83;;;;;;;24.04;66.17;99430.63;1795475;79;27346;-50
2023/07/01 09:40:37;;;;;;;82.12;76.62;;;;;;;24.04;66.24;99427.06;1795927;79;25972;-50
2023/07/01 09:43:04;;;;;;;85.05;79.03;;;;;;;24.04;66.06;99424.30;1796134;79;25563;-52
2023/07/01 09:45:30;;;;;;;80.25;74.70;;;;;;;24.07;66.22;99426.23;1796100;79;25529;-52
2023/07/01 09:47:56;;;;;;;76.35;71.40;;;;;;;24.09;65.18;99419.67;1796154;79;25365;-51
2023/07/01 09:50:28;;;;;;;75.95;70.87;;;;;;;24.01;64.69;99424.56;1796107;79;27936;-49
2023/07/01 09:52:55;;;;;;;78.62;73.67;;;;;;;23.96;65.04;99424.28;1795991;79;25632;-53
2023/07/01 09:55:23;;;;;;;77.25;72.08;;;;;;;23.98;64.76;99430.92;1796119;79;25395;-53
2023/07/01 09:57:50;;;;;;;77.55;72.35;;;;;;;23.95;65.12;99430.37;1796091;79;25621;-54
2023/07/01 10:00:17;;;;;;;77.75;72.58;;;;;;;24.00;65.29;99427.74;1796295;79;25616;-52
2023/07/01 10:02:47;;;;;;;77.58;72.53;;;;;;;24.05;64.87;99415.60;1796102;79;27341;-53
2023/07/01 10:05:14;;;;;;;75.72;70.92;;;;;;;24.13;65.29;99414.11;1795291;79;26915;-54
2023/07/01 10:07:42;;;;;;;77.37;72.42;;;;;;;24.18;65.03;99413.02;1796197;79;25611;-54
2023/07/01 10:10:16;;;;;;;77.72;72.37;;;;;;;24.29;65.31;99410.04;1796113;79;25433;-51
2023/07/01 10:12:46;;;;;;;78.28;73.12;;;;;;;24.41;64.99;99403.88;1796169;79;25370;-55
2023/07/01 10:15:16;;;;;;;76.67;71.47;;;;;;;24.54;64.97;99401.88;1796100;79;27993;-56
2023/07/01 10:17:52;;;;;;;77.10;72.17;;;;;;;24.68;64.94;99399.45;1795227;79;25557;-56
2023/07/01 10:20:32;;;;;;;79.62;74.12;;;;;;;24.98;64.87;99398.41;1766544;79;25485;-56
2023/07/01 10:23:03;;;;;;;51.65;47.83;;;;;;;25.27;64.43;99406.09;1796136;79;25607;-56
2023/07/01 10:25:36;;;;;;;75.72;70.70;;;;;;;25.36;63.04;99397.95;1796175;79;25473;-52
2023/07/01 10:28:08;;;;;;;76.50;71.42;;;;;;;25.40;62.28;99404.79;1796260;79;27908;-54
2023/07/01 10:30:52;;;;;;;75.97;71.12;;;;;;;25.43;61.97;99401.16;1796116;79;25634;-56
2023/07/01 10:33:33;;;;;;;76.42;71.33;;;;;;;25.42;61.64;99399.02;1791962;78;25561;-54
2023/07/01 10:36:10;;;;;;;75.87;71.07;;;;;;;25.43;61.26;99401.16;1765160;79;25727;-55
2023/07/01 10:38:38;;;;;;;76.87;71.67;;;;;;;25.34;61.08;99401.16;1761157;81;25469;-55
2023/07/01 10:41:06;;;;;;;76.20;71.07;;;;;;;25.20;60.58;99397.32;1761414;81;27983;-53
2023/07/01 10:43:36;;;;;;;78.07;72.90;;;;;;;25.08;61.08;99389.67;1761086;81;25542;-53
2023/07/01 10:46:24;;;;;;;76.35;71.25;;;;;;;25.01;61.13;99389.84;1733226;81;25648;-55
2023/07/01 10:49:06;;;;;;;76.15;70.92;;;;;;;24.96;61.37;99389.16;1761153;81;25575;-55
2023/07/01 10:51:50;;;;;;;47.27;43.68;;;;;;;24.95;61.53;99379.90;1761172;81;25447;-55
2023/07/01 10:54:32;;;;;;;16.25;10.72;;;;;;;25.04;61.94;99379.30;1720090;81;27390;-54
2023/07/01 10:57:16;;;;;;;18.60;11.43;;;;;;;25.17;61.43;99374.66;1761121;81;25668;-54
2023/07/01 10:59:43;;;;;;;46.88;43.23;;;;;;;25.72;63.65;99361.85;1752809;81;25576;-55
2023/07/01 11:02:11;;;;;;;77.35;71.50;;;;;;;26.55;63.19;99359.63;1761112;81;27534;-54
2023/07/01 11:04:59;;;;;;;73.57;68.62;;;;;;;27.28;61.25;99357.66;1761390;81;29003;-55
2023/07/01 11:07:28;;;;;;;77.27;71.77;;;;;;;27.62;58.84;99356.14;1759170;81;27408;-54
2023/07/01 11:09:55;;;;;;;73.30;68.35;;;;;;;27.85;57.13;99361.89;1759987;81;25811;-55
2023/07/01 11:12:27;;;;;;;74.97;69.85;;;;;;;27.84;56.06;99358.17;1761118;81;25545;-56
2023/07/01 11:14:54;;;;;;;75.65;70.55;;;;;;;27.76;55.15;99356.27;1761130;81;25654;-56
2023/07/01 11:17:22;;;;;;;73.10;67.97;;;;;;;27.73;55.01;99354.38;1761401;81;25376;-55
2023/07/01 11:19:58;;;;;;;73.30;68.47;;;;;;;27.69;54.13;99355.13;1761276;81;27381;-56
2023/07/01 11:22:25;;;;;;;61.68;57.33;;;;;;;28.00;55.27;99360.81;1761049;81;25583;-56
2023/07/01 11:24:51;;;;;;;72.53;67.72;;;;;;;28.49;55.25;99354.66;1761079;81;25549;-55